createdAt,value
2018-01-20T00:02:12.825Z,26.37
2018-01-20T00:04:41.562Z,21.13
2018-01-20T00:07:10.301Z,30.90
2018-01-20T00:09:47.864Z,21.23
2018-01-20T00:12:16.484Z,23.33
2018-01-20T00:14:45.157Z,26.00
2018-01-20T00:17:16.444Z,25.70
2018-01-20T00:19:45.376Z,25.40
2018-01-20T00:22:17.561Z,26.40
2018-01-20T00:24:50.224Z,25.33
2018-01-20T00:27:18.825Z,28.43
2018-01-20T00:29:47.336Z,23.17
2018-01-20T00:32:15.693Z,29.10
2018-01-20T00:34:43.975Z,25.30
2018-01-20T00:37:12.364Z,23.50
2018-01-20T00:39:40.722Z,25.80
2018-01-20T00:42:09.168Z,23.73
2018-01-20T00:44:37.680Z,22.80
2018-01-20T00:47:06.033Z,28.30
2018-01-20T00:49:34.347Z,28.03
2018-01-20T00:52:02.680Z,23.83
2018-01-20T00:54:31.276Z,23.70
2018-01-20T00:56:59.699Z,23.77
2018-01-20T00:59:28.033Z,28.00
2018-01-20T01:01:57.534Z,26.60
2018-01-20T01:04:25.816Z,24.40
2018-01-20T01:06:54.231Z,26.03
2018-01-20T01:09:22.565Z,24.97
2018-01-20T01:11:51.197Z,27.33
2018-01-20T01:14:19.630Z,27.90
2018-01-20T01:16:47.978Z,25.60
2018-01-20T01:19:16.328Z,25.80
2018-01-20T01:21:44.685Z,27.47
2018-01-20T01:24:13.001Z,26.53
2018-01-20T01:26:41.560Z,29.97
2018-01-20T01:29:10.030Z,25.73
2018-01-20T01:31:38.316Z,24.63
2018-01-20T01:34:06.997Z,25.73
2018-01-20T01:36:35.473Z,23.47
2018-01-20T01:39:04.068Z,24.57
2018-01-20T01:41:33.059Z,24.80
2018-01-20T01:44:01.335Z,25.60
2018-01-20T01:46:29.843Z,23.70
2018-01-20T01:48:58.291Z,22.80
2018-01-20T01:51:26.779Z,24.77
2018-01-20T01:53:55.202Z,22.70
2018-01-20T01:56:23.545Z,22.87
2018-01-20T01:58:51.950Z,21.60
2018-01-20T02:01:20.380Z,23.50
2018-01-20T02:03:49.040Z,34.03
2018-01-20T02:06:26.259Z,25.60
2018-01-20T02:08:54.601Z,27.03
2018-01-20T02:11:22.931Z,24.23
2018-01-20T02:13:51.706Z,23.07
2018-01-20T02:16:20.188Z,22.53
2018-01-20T02:18:48.438Z,24.20
2018-01-20T02:21:16.720Z,26.00
2018-01-20T02:23:45.236Z,26.20
2018-01-20T02:26:13.744Z,25.13
2018-01-20T02:28:42.072Z,24.57
2018-01-20T02:31:10.361Z,23.13
2018-01-20T02:33:38.627Z,23.23
2018-01-20T02:36:07.566Z,27.40
2018-01-20T02:38:35.907Z,26.17
2018-01-20T02:41:04.396Z,27.87
2018-01-20T02:43:32.664Z,22.57
2018-01-20T02:46:00.976Z,22.10
2018-01-20T02:48:29.589Z,25.10
2018-01-20T02:50:57.993Z,22.53
2018-01-20T02:53:26.433Z,23.33
2018-01-20T02:55:54.935Z,23.13
2018-01-20T02:58:23.396Z,21.43
2018-01-20T03:00:51.884Z,31.63
2018-01-20T03:03:20.238Z,26.50
2018-01-20T03:05:48.623Z,24.87
2018-01-20T03:08:16.927Z,27.90
2018-01-20T03:10:45.281Z,24.37
2018-01-20T03:13:13.792Z,25.83
2018-01-20T03:15:42.228Z,23.23
2018-01-20T03:18:10.512Z,25.27
2018-01-20T03:20:38.933Z,26.50
2018-01-20T03:23:07.303Z,24.20
2018-01-20T03:25:36.304Z,29.90
2018-01-20T03:28:04.644Z,24.53
2018-01-20T03:30:33.010Z,32.70
2018-01-20T03:33:01.516Z,24.97
2018-01-20T03:35:30.064Z,26.67
2018-01-20T03:37:58.453Z,21.40
2018-01-20T03:40:26.861Z,26.37
2018-01-20T03:42:55.184Z,26.00
2018-01-20T03:45:23.761Z,23.60
2018-01-20T03:47:52.090Z,32.17
2018-01-20T03:50:27.256Z,25.07
2018-01-20T03:52:55.629Z,27.60
2018-01-20T03:55:24.016Z,24.87
2018-01-20T03:57:52.388Z,25.60
2018-01-20T04:00:20.876Z,26.40
2018-01-20T04:02:49.203Z,24.93
2018-01-20T04:05:17.503Z,28.60
2018-01-20T04:07:46.149Z,25.77
2018-01-20T04:10:15.157Z,24.43
2018-01-20T04:12:43.737Z,23.27
2018-01-20T04:15:12.508Z,27.40
2018-01-20T04:17:41.060Z,29.40
2018-01-20T04:20:10.229Z,25.33
2018-01-20T04:22:39.006Z,27.53
2018-01-20T04:25:07.953Z,25.80
2018-01-20T04:27:36.522Z,23.80
2018-01-20T04:30:05.160Z,31.70
2018-01-20T04:32:33.954Z,27.60
2018-01-20T04:35:02.670Z,24.17
2018-01-20T04:37:31.400Z,26.53
2018-01-20T04:40:00.031Z,28.37
2018-01-20T04:42:28.752Z,28.87
2018-01-20T04:44:57.734Z,27.50
2018-01-20T04:47:26.312Z,24.97
2018-01-20T04:49:54.993Z,23.87
2018-01-20T04:52:23.945Z,27.07
2018-01-20T04:54:52.501Z,24.43
2018-01-20T04:57:21.145Z,26.37
2018-01-20T04:59:49.742Z,26.87
2018-01-20T05:05:14.098Z,26.57
2018-01-20T05:07:42.764Z,24.93
2018-01-20T05:10:11.338Z,25.87
2018-01-20T05:12:39.956Z,25.13
2018-01-20T05:15:08.562Z,26.53
2018-01-20T05:17:37.096Z,25.03
2018-01-20T05:20:05.827Z,27.13
2018-01-20T05:22:35.268Z,26.87
2018-01-20T05:25:03.800Z,26.57
2018-01-20T05:27:32.642Z,27.13
2018-01-20T05:30:01.357Z,24.20
2018-01-20T05:32:30.103Z,28.23
2018-01-20T05:34:58.764Z,35.73
2018-01-20T05:37:27.296Z,27.17
2018-01-20T05:39:55.899Z,23.80
2018-01-20T05:42:24.580Z,28.90
2018-01-20T05:44:53.076Z,28.77
2018-01-20T05:47:21.863Z,27.73
2018-01-20T05:49:50.492Z,32.20
2018-01-20T05:52:19.047Z,28.00
2018-01-20T05:54:47.531Z,25.60
2018-01-20T05:57:16.105Z,24.10
2018-01-20T05:59:44.652Z,26.93
2018-01-20T06:02:13.288Z,30.87
2018-01-20T06:04:41.782Z,25.90
2018-01-20T06:07:10.292Z,24.13
2018-01-20T06:09:38.856Z,28.80
2018-01-20T06:12:07.395Z,24.13
2018-01-20T06:14:35.910Z,30.80
2018-01-20T06:17:04.387Z,22.43
2018-01-20T06:19:32.947Z,28.60
2018-01-20T06:22:01.970Z,31.23
2018-01-20T06:24:30.507Z,25.50
2018-01-20T06:26:59.035Z,23.43
2018-01-20T06:29:27.615Z,26.70
2018-01-20T06:31:56.111Z,25.30
2018-01-20T06:34:24.608Z,31.80
2018-01-20T06:36:53.157Z,23.07
2018-01-20T06:39:21.654Z,25.17
2018-01-20T06:41:50.216Z,25.93
2018-01-20T06:44:18.763Z,22.63
2018-01-20T06:46:47.573Z,24.37
2018-01-20T06:49:16.068Z,27.23
2018-01-20T06:51:44.576Z,28.70
2018-01-20T06:54:13.068Z,22.90
2018-01-20T06:56:41.579Z,28.30
2018-01-20T06:59:10.143Z,29.63
2018-01-20T07:01:38.654Z,25.40
2018-01-20T07:04:08.124Z,25.03
2018-01-20T07:06:36.904Z,27.90
2018-01-20T07:09:06.056Z,26.50
2018-01-20T07:11:34.590Z,24.30
2018-01-20T07:14:03.071Z,27.10
2018-01-20T07:16:31.845Z,27.53
2018-01-20T07:19:00.339Z,25.10
2018-01-20T07:21:28.882Z,26.33
2018-01-20T07:23:57.444Z,25.20
2018-01-20T07:26:26.148Z,24.03
2018-01-20T07:28:54.769Z,26.17
2018-01-20T07:31:23.500Z,28.67
2018-01-20T07:33:52.428Z,24.70
2018-01-20T07:36:21.108Z,23.60
2018-01-20T07:38:49.755Z,29.50
2018-01-20T07:41:18.448Z,29.00
2018-01-20T07:43:46.940Z,23.90
2018-01-20T07:46:15.545Z,26.20
2018-01-20T07:48:44.081Z,30.60
2018-01-20T07:51:12.857Z,26.83
2018-01-20T07:53:41.864Z,26.00
2018-01-20T07:56:10.591Z,28.40
2018-01-20T07:58:39.203Z,24.17
2018-01-20T08:01:07.721Z,25.70
2018-01-20T08:03:36.648Z,23.53
2018-01-20T08:06:05.617Z,26.40
2018-01-20T08:08:35.753Z,24.67
2018-01-20T08:11:06.019Z,23.00
2018-01-20T08:13:36.756Z,25.20
2018-01-20T08:16:05.662Z,22.27
2018-01-20T08:18:35.827Z,25.73
2018-01-20T08:21:05.482Z,28.00
2018-01-20T08:23:34.052Z,21.03
2018-01-20T08:26:03.096Z,24.97
2018-01-20T08:28:32.861Z,22.30
2018-01-20T08:31:01.909Z,24.00
2018-01-20T08:33:30.680Z,21.40
2018-01-20T08:35:59.475Z,24.27
2018-01-20T08:38:29.685Z,19.60
2018-01-20T08:40:59.735Z,27.47
2018-01-20T08:43:28.737Z,27.63
2018-01-20T08:45:57.709Z,23.10
2018-01-20T08:48:26.585Z,21.00
2018-01-20T08:50:55.500Z,18.27
2018-01-20T08:53:24.065Z,22.00
2018-01-20T08:55:52.595Z,24.50
2018-01-20T08:58:22.061Z,22.20
2018-01-20T09:00:50.816Z,20.93
2018-01-20T09:03:19.299Z,21.53
2018-01-20T09:05:48.124Z,33.87
2018-01-20T09:08:17.118Z,21.23
2018-01-20T09:10:46.447Z,24.50
2018-01-20T09:13:15.290Z,19.90
2018-01-20T09:15:43.791Z,27.53
2018-01-20T09:18:13.107Z,23.07
2018-01-20T09:20:41.738Z,22.93
2018-01-20T09:23:10.489Z,26.23
2018-01-20T09:25:39.171Z,23.07
2018-01-20T09:28:07.878Z,24.90
2018-01-20T09:30:38.359Z,25.27
2018-01-20T09:33:06.966Z,22.07
2018-01-20T09:35:35.456Z,34.77
2018-01-20T09:38:04.028Z,33.83
2018-01-20T09:40:32.540Z,26.90
2018-01-20T09:43:01.687Z,23.97
2018-01-20T09:45:30.572Z,20.77
2018-01-20T09:47:59.196Z,22.30
2018-01-20T09:50:28.233Z,18.40
2018-01-20T09:52:57.792Z,19.90
2018-01-20T09:55:29.072Z,22.43
2018-01-20T09:57:58.186Z,21.93
2018-01-20T10:00:27.411Z,19.03
2018-01-20T10:02:56.426Z,22.60
2018-01-20T10:05:25.151Z,15.97
2018-01-20T10:07:53.739Z,18.53
2018-01-20T10:10:22.262Z,16.10
2018-01-20T10:12:51.535Z,18.83
2018-01-20T10:15:20.224Z,23.40
2018-01-20T10:17:48.880Z,16.90
2018-01-20T10:20:17.580Z,18.30
2018-01-20T10:22:46.281Z,16.77
2018-01-20T10:25:15.152Z,17.07
2018-01-20T10:27:43.644Z,14.20
2018-01-20T10:30:12.334Z,16.13
2018-01-20T10:32:41.962Z,22.40
2018-01-20T10:35:10.866Z,13.27
2018-01-20T10:37:39.790Z,16.40
2018-01-20T10:40:10.042Z,13.40
2018-01-20T10:42:38.799Z,14.47
2018-01-20T10:45:07.295Z,12.53
2018-01-20T10:47:36.512Z,13.60
2018-01-20T10:50:05.031Z,11.93
2018-01-20T10:52:35.247Z,15.77
2018-01-20T10:55:03.893Z,13.80
2018-01-20T10:57:32.968Z,12.03
2018-01-20T11:00:01.669Z,13.40
2018-01-20T11:02:31.857Z,10.83
2018-01-20T11:05:03.183Z,12.23
2018-01-20T11:07:31.901Z,14.00
2018-01-20T11:10:00.403Z,10.30
2018-01-20T11:12:29.311Z,10.90
2018-01-20T11:15:00.759Z,10.37
2018-01-20T11:17:29.852Z,9.60
2018-01-20T11:19:58.866Z,12.47
2018-01-20T11:22:28.305Z,11.10
2018-01-20T11:24:57.118Z,12.50
2018-01-20T11:27:25.877Z,11.20
2018-01-20T11:29:55.036Z,11.93
2018-01-20T11:32:23.916Z,11.07
2018-01-20T11:34:54.717Z,12.90
2018-01-20T11:37:24.715Z,11.73
2018-01-20T11:39:54.710Z,9.53
2018-01-20T11:42:23.852Z,9.40
2018-01-20T11:44:52.967Z,11.03
2018-01-20T11:47:23.084Z,12.13
2018-01-20T11:49:51.779Z,13.37
2018-01-20T11:52:22.330Z,8.53
2018-01-20T11:54:51.734Z,7.97
2018-01-20T11:57:20.299Z,11.10
2018-01-20T11:59:49.395Z,13.23
2018-01-20T12:02:18.888Z,17.33
2018-01-20T12:04:48.018Z,15.30
2018-01-20T12:07:17.403Z,20.23
2018-01-20T12:09:46.250Z,12.67
2018-01-20T12:12:15.078Z,20.73
2018-01-20T12:14:43.765Z,11.07
2018-01-20T12:17:12.485Z,19.27
2018-01-20T12:19:41.020Z,11.60
2018-01-20T12:22:09.821Z,18.30
2018-01-20T12:24:38.482Z,10.73
2018-01-20T12:27:07.172Z,13.87
2018-01-20T12:29:35.856Z,12.33
2018-01-20T12:32:06.242Z,14.60
2018-01-20T12:34:36.627Z,9.40
2018-01-20T12:37:08.002Z,11.10
2018-01-20T12:39:36.970Z,14.40
2018-01-20T12:42:06.249Z,12.73
2018-01-20T12:44:35.134Z,11.40
2018-01-20T12:47:03.864Z,20.27
2018-01-20T12:49:32.530Z,14.00
2018-01-20T12:52:01.332Z,17.33
2018-01-20T12:54:29.945Z,12.33
2018-01-20T12:56:58.769Z,10.70
2018-01-20T12:59:30.567Z,14.67
2018-01-20T13:02:03.646Z,10.67
2018-01-20T13:04:33.099Z,12.47
2018-01-20T13:07:01.801Z,12.50
2018-01-20T13:09:30.603Z,10.27
2018-01-20T13:11:59.624Z,13.27
2018-01-20T13:14:28.309Z,14.37
2018-01-20T13:16:56.872Z,15.37
2018-01-20T13:19:25.433Z,11.90
2018-01-20T13:21:54.029Z,11.97
2018-01-20T13:24:22.564Z,11.63
2018-01-20T13:26:51.314Z,12.37
2018-01-20T13:29:19.905Z,11.23
2018-01-20T13:31:48.740Z,12.73
2018-01-20T13:34:17.197Z,10.40
2018-01-20T13:36:45.796Z,13.13
2018-01-20T13:39:14.555Z,9.57
2018-01-20T13:41:43.143Z,12.53
2018-01-20T13:44:11.607Z,9.50
2018-01-20T13:46:40.377Z,13.10
2018-01-20T13:49:08.859Z,12.37
2018-01-20T13:51:37.749Z,12.93
2018-01-20T13:54:06.441Z,12.10
2018-01-20T13:56:35.037Z,14.17
2018-01-20T13:59:04.030Z,11.30
2018-01-20T14:01:32.631Z,13.67
2018-01-20T14:04:01.194Z,12.57
2018-01-20T14:06:29.793Z,16.77
2018-01-20T14:08:58.337Z,14.53
2018-01-20T14:11:27.246Z,11.77
2018-01-20T14:13:55.896Z,10.73
2018-01-20T14:16:24.580Z,9.70
2018-01-20T14:18:53.516Z,18.87
2018-01-20T14:21:22.275Z,12.30
2018-01-20T14:23:50.847Z,12.33
2018-01-20T14:26:19.387Z,12.63
2018-01-20T14:28:48.220Z,15.70
2018-01-20T14:31:17.556Z,16.57
2018-01-20T14:33:46.236Z,20.37
2018-01-20T14:36:14.914Z,19.73
2018-01-20T14:38:45.008Z,17.90
2018-01-20T14:41:14.234Z,23.43
2018-01-20T14:43:42.811Z,17.40
2018-01-20T14:46:11.476Z,20.27
2018-01-20T14:48:40.193Z,21.87
2018-01-20T14:51:08.809Z,16.97
2018-01-20T14:53:38.527Z,17.47
2018-01-20T14:56:07.264Z,24.00
2018-01-20T14:58:35.930Z,23.67
2018-01-20T15:01:04.837Z,23.23
2018-01-20T15:03:33.535Z,15.07
2018-01-20T15:06:02.428Z,17.90
2018-01-20T15:08:31.114Z,20.63
2018-01-20T15:10:59.789Z,14.17
2018-01-20T15:13:28.486Z,15.20
2018-01-20T15:15:57.582Z,17.23
2018-01-20T15:18:26.281Z,17.93
2018-01-20T15:20:55.744Z,18.60
2018-01-20T15:23:24.288Z,16.80
2018-01-20T15:25:53.278Z,20.37
2018-01-20T15:28:22.039Z,20.33
2018-01-20T15:30:50.719Z,18.90
2018-01-20T15:33:19.586Z,24.47
2018-01-20T15:35:48.296Z,21.00
2018-01-20T15:38:16.915Z,20.40
2018-01-20T15:40:45.577Z,22.17
2018-01-20T15:43:14.534Z,17.83
2018-01-20T15:45:43.651Z,17.20
2018-01-20T15:48:12.544Z,20.60
2018-01-20T15:50:41.227Z,18.40
2018-01-20T15:53:09.913Z,18.23
2018-01-20T15:55:38.661Z,20.10
2018-01-20T15:58:07.386Z,20.67
2018-01-20T16:00:36.182Z,21.67
2018-01-20T16:03:04.961Z,22.20
2018-01-20T16:05:34.676Z,25.27
2018-01-20T16:08:03.565Z,28.53
2018-01-20T16:10:32.429Z,37.43
2018-01-20T16:13:01.371Z,35.70
2018-01-20T16:15:30.289Z,29.60
2018-01-20T16:17:58.871Z,30.07
2018-01-20T16:20:30.435Z,24.93
2018-01-20T16:22:59.139Z,27.03
2018-01-20T16:25:28.068Z,26.60
2018-01-20T16:27:56.940Z,23.83
2018-01-20T16:30:25.580Z,20.50
2018-01-20T16:32:54.372Z,25.60
2018-01-20T16:35:23.206Z,19.53
2018-01-20T16:37:52.278Z,21.27
2018-01-20T16:40:21.553Z,23.43
2018-01-20T16:42:50.060Z,27.10
2018-01-20T16:45:19.851Z,28.97
2018-01-20T16:47:48.720Z,26.07
2018-01-20T16:50:17.257Z,22.13
2018-01-20T16:52:45.828Z,28.30
2018-01-20T16:55:14.742Z,24.30
2018-01-20T16:57:43.424Z,24.63
2018-01-20T17:00:12.310Z,21.77
2018-01-20T17:02:41.612Z,21.30
2018-01-20T17:05:10.503Z,26.30
2018-01-20T17:07:39.593Z,29.00
2018-01-20T17:10:08.430Z,25.27
2018-01-20T17:12:37.500Z,24.77
2018-01-20T17:15:06.460Z,23.57
2018-01-20T17:17:35.055Z,26.40
2018-01-20T17:20:04.869Z,35.60
2018-01-20T17:22:34.343Z,25.40
2018-01-20T17:25:04.082Z,35.03
2018-01-20T17:27:32.976Z,29.00
2018-01-20T17:30:01.744Z,36.00
2018-01-20T17:32:30.755Z,24.20
2018-01-20T17:35:00.056Z,30.43
2018-01-20T17:37:28.925Z,25.20
2018-01-20T17:39:57.841Z,24.27
2018-01-20T17:42:26.761Z,24.10
2018-01-20T17:44:55.258Z,22.60
2018-01-20T17:47:23.928Z,19.80
2018-01-20T17:49:52.991Z,26.00
2018-01-20T17:52:22.344Z,27.27
2018-01-20T17:54:51.503Z,26.30
2018-01-20T17:57:20.266Z,30.77
2018-01-20T17:59:48.962Z,27.00
2018-01-20T18:02:17.686Z,28.57
2018-01-20T18:04:46.180Z,24.53
2018-01-20T18:07:14.816Z,23.43
2018-01-20T18:09:43.750Z,24.90
2018-01-20T18:12:12.356Z,24.87
2018-01-20T18:14:40.960Z,30.10
2018-01-20T18:17:09.538Z,24.43
2018-01-20T18:19:38.219Z,25.73
2018-01-20T18:22:07.539Z,27.07
2018-01-20T18:24:36.227Z,29.17
2018-01-20T18:27:05.229Z,32.13
2018-01-20T18:29:34.621Z,32.13
2018-01-20T18:32:03.266Z,35.67
2018-01-20T18:34:34.735Z,41.70
2018-01-20T18:37:04.353Z,28.03
2018-01-20T18:39:33.639Z,24.90
2018-01-20T18:42:02.657Z,24.43
2018-01-20T18:44:31.170Z,26.83
2018-01-20T18:46:59.929Z,24.10
2018-01-20T18:49:28.608Z,24.43
2018-01-20T18:51:57.896Z,27.97
2018-01-20T18:54:27.416Z,22.67
2018-01-20T18:56:56.175Z,27.37
2018-01-20T18:59:24.766Z,23.47
2018-01-20T19:01:53.490Z,23.40
2018-01-20T19:04:22.544Z,28.83
2018-01-20T19:06:51.671Z,23.43
2018-01-20T19:09:20.679Z,26.80
2018-01-20T19:11:49.498Z,27.43
2018-01-20T19:14:18.337Z,22.40
2018-01-20T19:16:48.231Z,21.47
2018-01-20T19:19:18.085Z,24.37
2018-01-20T19:21:47.670Z,22.13
2018-01-20T19:24:16.322Z,24.50
2018-01-20T19:26:45.246Z,19.73
2018-01-20T19:29:14.128Z,20.00
2018-01-20T19:31:42.836Z,20.50
2018-01-20T19:34:12.585Z,24.43
2018-01-20T19:36:43.067Z,19.73
2018-01-20T19:39:11.689Z,21.80
2018-01-20T19:41:40.536Z,20.90
2018-01-20T19:44:09.086Z,25.07
2018-01-20T19:46:39.138Z,20.77
2018-01-20T19:49:08.222Z,24.40
2018-01-20T19:51:37.819Z,24.07
2018-01-20T19:54:07.036Z,21.20
2018-01-20T19:56:36.763Z,18.47
2018-01-20T19:59:05.407Z,25.00
2018-01-20T20:01:35.899Z,30.07
2018-01-20T20:04:04.533Z,22.23
2018-01-20T20:06:34.034Z,30.47
2018-01-20T20:09:03.860Z,27.53
2018-01-20T20:11:32.742Z,26.93
2018-01-20T20:14:02.812Z,32.73
2018-01-20T20:16:31.964Z,27.80
2018-01-20T20:19:00.800Z,26.50
2018-01-20T20:21:30.626Z,29.17
2018-01-20T20:23:59.242Z,27.60
2018-01-20T20:26:28.506Z,28.93
2018-01-20T20:28:58.312Z,27.37
2018-01-20T20:31:28.139Z,26.87
2018-01-20T20:33:59.560Z,29.67
2018-01-20T20:36:28.239Z,29.80
2018-01-20T20:38:56.827Z,30.60
2018-01-20T20:41:25.582Z,26.57
2018-01-20T20:43:54.277Z,25.10
2018-01-20T20:46:22.869Z,24.30
2018-01-20T20:48:51.371Z,24.77
2018-01-20T20:51:20.093Z,22.43
2018-01-20T20:53:50.135Z,23.70
2018-01-20T20:56:19.500Z,27.90
2018-01-20T20:58:48.823Z,25.03
2018-01-20T21:01:19.558Z,26.33
2018-01-20T21:03:48.459Z,22.50
2018-01-20T21:06:17.750Z,23.83
2018-01-20T21:08:46.296Z,22.40
2018-01-20T21:11:15.750Z,19.03
2018-01-20T21:13:47.090Z,23.77
2018-01-20T21:16:16.231Z,22.97
2018-01-20T21:18:45.286Z,23.17
2018-01-20T21:21:19.876Z,18.43
2018-01-20T21:23:49.181Z,18.20
2018-01-20T21:26:19.143Z,18.00
2018-01-20T21:28:47.757Z,18.93
2018-01-20T21:31:16.367Z,17.77
2018-01-20T21:33:44.972Z,27.33
2018-01-20T21:36:13.611Z,18.87
2018-01-20T21:38:42.300Z,17.30
2018-01-20T21:41:10.908Z,28.93
2018-01-20T21:43:39.477Z,24.63
2018-01-20T21:46:08.179Z,31.10
2018-01-20T21:48:37.251Z,22.07
2018-01-20T21:51:06.100Z,25.13
2018-01-20T21:53:35.044Z,26.40
2018-01-20T21:56:03.613Z,23.57
2018-01-20T21:58:32.199Z,21.53
2018-01-20T22:01:02.410Z,18.87
2018-01-20T22:03:34.777Z,20.97
2018-01-20T22:06:08.673Z,21.97
2018-01-20T22:08:40.585Z,21.17
2018-01-20T22:11:13.368Z,25.47
2018-01-20T22:13:43.671Z,26.10
2018-01-20T22:16:16.162Z,21.97
2018-01-20T22:18:45.679Z,21.87
2018-01-20T22:21:18.381Z,26.13
2018-01-20T22:23:49.941Z,24.00
2018-01-20T22:26:19.572Z,20.07
2018-01-20T22:28:49.736Z,20.70
2018-01-20T22:31:21.089Z,19.47
2018-01-20T22:33:52.536Z,20.67
2018-01-20T22:36:23.496Z,23.60
2018-01-20T22:38:53.621Z,25.67
2018-01-20T22:41:23.247Z,31.43
2018-01-20T22:43:51.787Z,28.13
2018-01-20T22:46:20.491Z,23.90
2018-01-20T22:48:49.323Z,26.73
2018-01-20T22:51:19.048Z,21.63
2018-01-20T22:53:47.998Z,24.50
2018-01-20T22:56:16.620Z,25.67
2018-01-20T22:58:45.310Z,26.80
2018-01-20T23:01:19.901Z,24.10
2018-01-20T23:03:50.439Z,23.63
2018-01-20T23:06:22.066Z,26.40
2018-01-20T23:08:52.324Z,24.60
2018-01-20T23:11:21.270Z,21.10
2018-01-20T23:13:52.016Z,21.93
2018-01-20T23:16:24.084Z,23.80
2018-01-20T23:18:53.855Z,26.30
2018-01-20T23:21:22.439Z,21.67
2018-01-20T23:23:51.001Z,22.27
2018-01-20T23:26:19.501Z,22.77
2018-01-20T23:28:48.340Z,21.10
2018-01-20T23:31:17.135Z,20.93
2018-01-20T23:33:45.694Z,23.03
2018-01-20T23:36:14.548Z,25.23
2018-01-20T23:38:43.021Z,26.50
2018-01-20T23:41:11.503Z,25.70
2018-01-20T23:43:39.951Z,26.53
2018-01-20T23:46:08.748Z,17.93
2018-01-20T23:48:39.134Z,27.37
2018-01-20T23:51:09.235Z,22.37
2018-01-20T23:53:38.072Z,21.73
2018-01-20T23:56:06.857Z,24.13
2018-01-20T23:58:38.330Z,22.13
